Terminal Aerodrome Forecast
Issued by NWS

Home | Current Version | Previous Version | Text Only | Print | Product List | Glossary On
Versions: 1 2 3 4 5 6 7 8 9 10 11 12 13 14 15 16 17 18 19 20 21 22 23 24 25 26 27
000
FTUS44 KSJT 290200 AAC
TAFSOA
TAF AMD
KSOA 290243Z 2903/2924 35015KT 2SM TSRA VV001CB
     FM290400 26007KT P6SM -SHRA SCT050 OVC120
     FM290600 17008KT P6SM OVC120
     FM290900 17008KT P6SM BKN015
     FM291500 18013KT P6SM OVC025
     FM292100 18010KT P6SM SCT250=

USA.gov is the U.S. government's official web portal to all federal, state and local government web resources and services.